Shirahamamaru — JG4872 — position and weather

sailwx.info

Track history (hours):
 
Tides and Currents Weather Stations Pressure Air Temp Water Temp Dewpoint Dewpoint Depression Visibility Wind Speed Wind Dir Waves Ship Positions

Shirahamamaru

Last reported at 2014-Oct-01 11:11 UTC. Time now 2014-Oct-01 18:20 UTC.
Position N 35°13' E 139°43'.

Length 79 m; draft 3.2 m.

Type: Passenger vessel. MMSI: 431000239.

Date/timePositionNaut miles runAvg speedWind from/ knotsBaromVisibWave heightAir tempDewpointWater temp
2014-Oct-01 11:11N 35°13' E 139°43'6 9.0
2014-Oct-01 10:32N 35°10' E 139°49'3 3.5
2014-Oct-01 09:32N 35°12' E 139°45'1 1.5
2014-Oct-01 08:33N 35°11' E 139°47'3 2.6
2014-Oct-01 07:30N 35°13' E 139°44'3 2.9
2014-Oct-01 06:33N 35°12' E 139°47'3 2.6
2014-Oct-01 05:30N 35°13' E 139°44'2 1.8
2014-Oct-01 04:34N 35°12' E 139°46'0 0.5
2014-Oct-01 03:32N 35°12' E 139°45'2 1.6
2014-Oct-01 02:33N 35°11' E 139°47'3 2.6
2014-Oct-01 01:31N 35°13' E 139°44'3 2.7
2014-Oct-01 00:33N 35°11' E 139°47'2 2.2
2014-Sep-30 23:34N 35°13' E 139°45'2 1.6
2014-Sep-30 22:33N 35°12' E 139°46'2 1.8
2014-Sep-30 21:31N 35°13' E 139°44'1 0.1
2014-Sep-30 11:09N 35°13' E 139°43'6 9.3
2014-Sep-30 10:33N 35°10' E 139°49'3 3.3
2014-Sep-30 09:31N 35°12' E 139°45'2 1.7
2014-Sep-30 08:33N 35°11' E 139°47'2 2.4
2014-Sep-30 07:33N 35°13' E 139°45'2 2.3
2014-Sep-30 06:33N 35°11' E 139°47'3 2.5
2014-Sep-30 05:31N 35°13' E 139°44'2 2.0
2014-Sep-30 04:33N 35°12' E 139°47'1 0.9
2014-Sep-30 03:33N 35°12' E 139°46'1 1.4
2014-Sep-30 02:33N 35°11' E 139°47'2 2.3
2014-Sep-30 01:33N 35°13' E 139°45'2 2.0
2014-Sep-30 00:34N 35°12' E 139°47'2 2.1
2014-Sep-29 23:32N 35°13' E 139°45'1 1.5
2014-Sep-29 22:33N 35°12' E 139°46'2 1.7
2014-Sep-29 21:33N 35°13' E 139°44'1 0.1
2014-Sep-29 11:10N 35°13' E 139°43'6 7.9
2014-Sep-29 10:25N 35°10' E 139°49'4 4.1
2014-Sep-29 09:31N 35°12' E 139°45'2 1.7
2014-Sep-29 08:33N 35°11' E 139°47'4 0.2
2014-Sep-28 11:09N 35°13' E 139°43'6 9.5
2014-Sep-28 10:33N 35°10' E 139°49'3 3.3
2014-Sep-28 09:33N 35°12' E 139°46'2 1.7
2014-Sep-28 08:32N 35°11' E 139°47'3 3.0
2014-Sep-28 07:32N 35°13' E 139°44'3 3.3
2014-Sep-28 06:33N 35°11' E 139°48'3 3.2
2014-Sep-28 05:32N 35°13' E 139°44'2 2.3
2014-Sep-28 04:33N 35°12' E 139°47'1 1.4
2014-Sep-28 03:33N 35°13' E 139°46'2 2.3
2014-Sep-28 02:33N 35°11' E 139°48'3 3.4
2014-Sep-28 01:31N 35°13' E 139°44'3 3.1
2014-Sep-28 00:32N 35°11' E 139°47'3 2.8
2014-Sep-27 23:31N 35°13' E 139°44'2 1.8
2014-Sep-27 22:33N 35°12' E 139°46'1 1.3
2014-Sep-27 21:33N 35°13' E 139°45'2 0.2
2014-Sep-27 11:07N 35°13' E 139°43'610.0
2014-Sep-27 10:33N 35°10' E 139°49'4 3.5
2014-Sep-27 09:32N 35°13' E 139°46'2 2.2
2014-Sep-27 08:31N 35°11' E 139°47'4 3.7
2014-Sep-27 07:23N 35°13' E 139°43'4 4.7
2014-Sep-27 06:33N 35°12' E 139°47'3 2.7
2014-Sep-27 05:31N 35°13' E 139°44'3 2.8
2014-Sep-27 04:27N 35°11' E 139°47'3 3.0
2014-Sep-27 03:26N 35°13' E 139°44'3 3.6
2014-Sep-27 02:33N 35°11' E 139°47'3 2.7
2014-Sep-27 01:32N 35°13' E 139°45'3 2.7
2014-Sep-27 00:33N 35°11' E 139°47'3 2.7
2014-Sep-26 23:31N 35°13' E 139°44'2 1.8
2014-Sep-26 22:33N 35°12' E 139°46'2 1.6
2014-Sep-26 21:33N 35°13' E 139°45'1 0.1
2014-Sep-26 11:04N 35°13' E 139°43'611.1
2014-Sep-26 10:32N 35°10' E 139°49'4 3.6
2014-Sep-26 09:31N 35°12' E 139°45'2 2.1
2014-Sep-26 08:31N 35°11' E 139°47'3 3.3
2014-Sep-26 07:31N 35°13' E 139°44'3 3.3
2014-Sep-26 06:32N 35°11' E 139°47'3 2.9
2014-Sep-26 05:30N 35°13' E 139°44'2 2.0
2014-Sep-26 04:33N 35°12' E 139°46'0 0.4
2014-Sep-26 03:33N 35°12' E 139°46'1 1.2
2014-Sep-26 02:33N 35°12' E 139°47'3 2.6
2014-Sep-26 01:32N 35°13' E 139°44'3 3.1
2014-Sep-26 00:31N 35°11' E 139°47'3 3.2
2014-Sep-25 23:32N 35°13' E 139°44'2 1.9
2014-Sep-25 22:33N 35°12' E 139°46'2 1.8
2014-Sep-25 21:32N 35°13' E 139°44'1 0.0
2014-Sep-24 11:13N 35°13' E 139°43'6 8.6
2014-Sep-24 10:33N 35°10' E 139°49'6 0.1
2014-Sep-22 11:08N 35°13' E 139°43'6 9.7
2014-Sep-22 10:32N 35°10' E 139°49'3 3.3
2014-Sep-22 09:33N 35°12' E 139°46'1 1.1
2014-Sep-22 08:33N 35°12' E 139°47'3 2.5
2014-Sep-22 07:30N 35°13' E 139°44'3 3.0
2014-Sep-22 06:32N 35°11' E 139°47'3 2.7
2014-Sep-22 05:31N 35°13' E 139°44'2 1.6
2014-Sep-22 04:33N 35°12' E 139°46'0 0.5
2014-Sep-22 03:32N 35°12' E 139°46'1 1.5
2014-Sep-22 02:33N 35°12' E 139°47'4 2.7
2014-Sep-22 01:06N 35°13' E 139°43'4 6.9
2014-Sep-22 00:33N 35°11' E 139°47'3 2.6
2014-Sep-21 23:31N 35°13' E 139°44'2 1.8
2014-Sep-21 22:33N 35°12' E 139°46'1 1.4
2014-Sep-21 21:32N 35°13' E 139°44'  
Track history (hours):
 
Tides and Currents Weather Stations Pressure Air Temp Water Temp Dewpoint Dewpoint Depression Visibility Wind Speed Wind Dir Waves Ship Positions

Shirahamamaru

Last reported at 2014-Oct-01 11:11 UTC. Time now 2014-Oct-01 18:20 UTC.
Position N 35°13' E 139°43'.

Length 79 m; draft 3.2 m.

Type: Passenger vessel. MMSI: 431000239.

Date/timePositionNaut miles runAvg speedWind from/ knotsBaromVisibWave heightAir tempDewpointWater temp
2014-Oct-01 11:11N 35°13' E 139°43'6 9.0
2014-Oct-01 10:32N 35°10' E 139°49'3 3.5
2014-Oct-01 09:32N 35°12' E 139°45'1 1.5
2014-Oct-01 08:33N 35°11' E 139°47'3 2.6
2014-Oct-01 07:30N 35°13' E 139°44'3 2.9
2014-Oct-01 06:33N 35°12' E 139°47'3 2.6
2014-Oct-01 05:30N 35°13' E 139°44'2 1.8
2014-Oct-01 04:34N 35°12' E 139°46'0 0.5
2014-Oct-01 03:32N 35°12' E 139°45'2 1.6
2014-Oct-01 02:33N 35°11' E 139°47'3 2.6
2014-Oct-01 01:31N 35°13' E 139°44'3 2.7
2014-Oct-01 00:33N 35°11' E 139°47'2 2.2
2014-Sep-30 23:34N 35°13' E 139°45'2 1.6
2014-Sep-30 22:33N 35°12' E 139°46'2 1.8
2014-Sep-30 21:31N 35°13' E 139°44'1 0.1
2014-Sep-30 11:09N 35°13' E 139°43'6 9.3
2014-Sep-30 10:33N 35°10' E 139°49'3 3.3
2014-Sep-30 09:31N 35°12' E 139°45'2 1.7
2014-Sep-30 08:33N 35°11' E 139°47'2 2.4
2014-Sep-30 07:33N 35°13' E 139°45'2 2.3
2014-Sep-30 06:33N 35°11' E 139°47'3 2.5
2014-Sep-30 05:31N 35°13' E 139°44'2 2.0
2014-Sep-30 04:33N 35°12' E 139°47'1 0.9
2014-Sep-30 03:33N 35°12' E 139°46'1 1.4
2014-Sep-30 02:33N 35°11' E 139°47'2 2.3
2014-Sep-30 01:33N 35°13' E 139°45'2 2.0
2014-Sep-30 00:34N 35°12' E 139°47'2 2.1
2014-Sep-29 23:32N 35°13' E 139°45'1 1.5
2014-Sep-29 22:33N 35°12' E 139°46'2 1.7
2014-Sep-29 21:33N 35°13' E 139°44'1 0.1
2014-Sep-29 11:10N 35°13' E 139°43'6 7.9
2014-Sep-29 10:25N 35°10' E 139°49'4 4.1
2014-Sep-29 09:31N 35°12' E 139°45'2 1.7
2014-Sep-29 08:33N 35°11' E 139°47'4 0.2
2014-Sep-28 11:09N 35°13' E 139°43'6 9.5
2014-Sep-28 10:33N 35°10' E 139°49'3 3.3
2014-Sep-28 09:33N 35°12' E 139°46'2 1.7
2014-Sep-28 08:32N 35°11' E 139°47'3 3.0
2014-Sep-28 07:32N 35°13' E 139°44'3 3.3
2014-Sep-28 06:33N 35°11' E 139°48'3 3.2
2014-Sep-28 05:32N 35°13' E 139°44'2 2.3
2014-Sep-28 04:33N 35°12' E 139°47'1 1.4
2014-Sep-28 03:33N 35°13' E 139°46'2 2.3
2014-Sep-28 02:33N 35°11' E 139°48'3 3.4
2014-Sep-28 01:31N 35°13' E 139°44'3 3.1
2014-Sep-28 00:32N 35°11' E 139°47'3 2.8
2014-Sep-27 23:31N 35°13' E 139°44'2 1.8
2014-Sep-27 22:33N 35°12' E 139°46'1 1.3
2014-Sep-27 21:33N 35°13' E 139°45'2 0.2
2014-Sep-27 11:07N 35°13' E 139°43'610.0
2014-Sep-27 10:33N 35°10' E 139°49'4 3.5
2014-Sep-27 09:32N 35°13' E 139°46'2 2.2
2014-Sep-27 08:31N 35°11' E 139°47'4 3.7
2014-Sep-27 07:23N 35°13' E 139°43'4 4.7
2014-Sep-27 06:33N 35°12' E 139°47'3 2.7
2014-Sep-27 05:31N 35°13' E 139°44'3 2.8
2014-Sep-27 04:27N 35°11' E 139°47'3 3.0
2014-Sep-27 03:26N 35°13' E 139°44'3 3.6
2014-Sep-27 02:33N 35°11' E 139°47'3 2.7
2014-Sep-27 01:32N 35°13' E 139°45'3 2.7
2014-Sep-27 00:33N 35°11' E 139°47'3 2.7
2014-Sep-26 23:31N 35°13' E 139°44'2 1.8
2014-Sep-26 22:33N 35°12' E 139°46'2 1.6
2014-Sep-26 21:33N 35°13' E 139°45'1 0.1
2014-Sep-26 11:04N 35°13' E 139°43'611.1
2014-Sep-26 10:32N 35°10' E 139°49'4 3.6
2014-Sep-26 09:31N 35°12' E 139°45'2 2.1
2014-Sep-26 08:31N 35°11' E 139°47'3 3.3
2014-Sep-26 07:31N 35°13' E 139°44'3 3.3
2014-Sep-26 06:32N 35°11' E 139°47'3 2.9
2014-Sep-26 05:30N 35°13' E 139°44'2 2.0
2014-Sep-26 04:33N 35°12' E 139°46'0 0.4
2014-Sep-26 03:33N 35°12' E 139°46'1 1.2
2014-Sep-26 02:33N 35°12' E 139°47'3 2.6
2014-Sep-26 01:32N 35°13' E 139°44'3 3.1
2014-Sep-26 00:31N 35°11' E 139°47'3 3.2
2014-Sep-25 23:32N 35°13' E 139°44'2 1.9
2014-Sep-25 22:33N 35°12' E 139°46'2 1.8
2014-Sep-25 21:32N 35°13' E 139°44'1 0.0
2014-Sep-24 11:13N 35°13' E 139°43'6 8.6
2014-Sep-24 10:33N 35°10' E 139°49'6 0.1
2014-Sep-22 11:08N 35°13' E 139°43'6 9.7
2014-Sep-22 10:32N 35°10' E 139°49'3 3.3
2014-Sep-22 09:33N 35°12' E 139°46'1 1.1
2014-Sep-22 08:33N 35°12' E 139°47'3 2.5
2014-Sep-22 07:30N 35°13' E 139°44'3 3.0
2014-Sep-22 06:32N 35°11' E 139°47'3 2.7
2014-Sep-22 05:31N 35°13' E 139°44'2 1.6
2014-Sep-22 04:33N 35°12' E 139°46'0 0.5
2014-Sep-22 03:32N 35°12' E 139°46'1 1.5
2014-Sep-22 02:33N 35°12' E 139°47'4 2.7
2014-Sep-22 01:06N 35°13' E 139°43'4 6.9
2014-Sep-22 00:33N 35°11' E 139°47'3 2.6
2014-Sep-21 23:31N 35°13' E 139°44'2 1.8
2014-Sep-21 22:33N 35°12' E 139°46'1 1.4
2014-Sep-21 21:32N 35°13' E 139°44'  

Dump ship's entire track history